Time,TemperatureF,DewpointF,PressureIn,WindDirection,WindDirectionDegrees,WindSpeedMPH,WindSpeedGustMPH,Humidity,HourlyPrecipIn,Conditions,Clouds,dailyrainin,SolarRadiationWatts/m^2,SoftwareType,DateUTC
2013-01-22 00:01:00,14.0,5.0,-100.00,NNW,345,8.0,26.0,66,0.00,,,0.00,0.000000,,2013-01-22 05:01:00,
2013-01-22 00:33:00,14.0,5.0,-100.00,NNW,345,8.0,26.0,66,0.00,,,0.00,0.000000,,2013-01-22 05:33:00,
2013-01-22 00:43:00,14.0,5.0,-100.00,NNW,345,8.0,26.0,66,0.00,,,0.00,0.000000,,2013-01-22 05:43:00,
2013-01-22 00:53:00,14.0,5.0,-100.00,NNW,345,8.0,26.0,66,0.00,,,0.00,0.000000,,2013-01-22 05:53:00,
2013-01-22 01:01:00,12.0,0.0,-100.00,NNW,332,7.0,22.0,58,0.00,,,0.00,0.000000,,2013-01-22 06:01:00,
2013-01-22 01:33:00,12.0,0.0,-100.00,NNW,332,7.0,22.0,58,0.00,,,0.00,0.000000,,2013-01-22 06:33:00,
2013-01-22 01:43:00,12.0,0.0,-100.00,NNW,332,7.0,22.0,58,0.00,,,0.00,0.000000,,2013-01-22 06:43:00,
2013-01-22 01:53:00,12.0,0.0,-100.00,NNW,332,7.0,22.0,58,0.00,,,0.00,0.000000,,2013-01-22 06:53:00,
2013-01-22 02:01:00,10.0,-1.0,-100.00,North,0,8.0,20.0,61,0.00,,,0.00,0.000000,,2013-01-22 07:01:00,
2013-01-22 02:22:00,10.0,-1.0,-100.00,North,0,8.0,20.0,61,0.00,,,0.00,0.000000,,2013-01-22 07:22:00,
2013-01-22 02:33:00,10.0,-1.0,-100.00,North,0,8.0,20.0,61,0.00,,,0.00,0.000000,,2013-01-22 07:33:00,
2013-01-22 02:43:00,10.0,-1.0,-100.00,North,0,8.0,20.0,61,0.00,,,0.00,0.000000,,2013-01-22 07:43:00,
2013-01-22 02:53:00,10.0,-1.0,-100.00,North,0,8.0,20.0,61,0.00,,,0.00,0.000000,,2013-01-22 07:53:00,
2013-01-22 03:01:00,8.0,-3.0,-100.00,NNW,347,7.0,17.0,61,0.00,,,0.00,0.000000,,2013-01-22 08:01:00,
2013-01-22 03:22:00,8.0,-3.0,-100.00,NNW,347,7.0,17.0,61,0.00,,,0.00,0.000000,,2013-01-22 08:22:00,
2013-01-22 03:33:00,8.0,-3.0,-100.00,NNW,347,7.0,17.0,61,0.00,,,0.00,0.000000,,2013-01-22 08:33:00,
2013-01-22 03:43:00,8.0,-3.0,-100.00,NNW,347,7.0,17.0,61,0.00,,,0.00,0.000000,,2013-01-22 08:43:00,
2013-01-22 03:53:00,8.0,-3.0,-100.00,NNW,347,7.0,17.0,61,0.00,,,0.00,0.000000,,2013-01-22 08:53:00,
2013-01-22 04:01:00,7.0,-3.0,-100.00,NNE,16,6.0,18.0,64,0.00,,,0.00,0.000000,,2013-01-22 09:01:00,
2013-01-22 04:33:00,7.0,-3.0,-100.00,NNE,16,6.0,18.0,64,0.00,,,0.00,0.000000,,2013-01-22 09:33:00,
2013-01-22 04:43:00,7.0,-3.0,-100.00,NNE,16,6.0,18.0,64,0.00,,,0.00,0.000000,,2013-01-22 09:43:00,
2013-01-22 04:53:00,7.0,-3.0,-100.00,NNE,16,6.0,18.0,64,0.00,,,0.00,0.000000,,2013-01-22 09:53:00,
2013-01-22 05:01:00,6.0,-4.0,-100.00,NNW,342,10.0,20.0,62,0.00,,,0.00,0.000000,,2013-01-22 10:01:00,
2013-01-22 05:22:00,6.0,-4.0,-100.00,NNW,342,10.0,20.0,62,0.00,,,0.00,0.000000,,2013-01-22 10:22:00,
2013-01-22 05:33:00,6.0,-4.0,-100.00,NNW,342,10.0,20.0,62,0.00,,,0.00,0.000000,,2013-01-22 10:33:00,
2013-01-22 05:43:00,6.0,-4.0,-100.00,NNW,342,10.0,20.0,62,0.00,,,0.00,0.000000,,2013-01-22 10:43:00,
2013-01-22 05:53:00,6.0,-4.0,-100.00,NNW,342,10.0,20.0,62,0.00,,,0.00,0.000000,,2013-01-22 10:53:00,
2013-01-22 06:01:00,4.0,-5.0,-100.00,NNW,346,7.0,20.0,66,0.00,,,0.00,0.000000,,2013-01-22 11:01:00,
2013-01-22 06:33:00,4.0,-5.0,-100.00,NNW,346,7.0,20.0,66,0.00,,,0.00,0.000000,,2013-01-22 11:33:00,
2013-01-22 06:43:00,4.0,-5.0,-100.00,NNW,346,7.0,20.0,66,0.00,,,0.00,0.000000,,2013-01-22 11:43:00,
2013-01-22 06:53:00,4.0,-5.0,-100.00,NNW,346,7.0,20.0,66,0.00,,,0.00,0.000000,,2013-01-22 11:53:00,
2013-01-22 07:01:00,3.0,-6.0,-100.00,NNW,340,7.0,15.0,66,0.00,,,0.00,0.000000,,2013-01-22 12:01:00,
2013-01-22 07:33:00,3.0,-6.0,-100.00,NNW,340,7.0,15.0,66,0.00,,,0.00,0.000000,,2013-01-22 12:33:00,
2013-01-22 07:43:00,3.0,-6.0,-100.00,NNW,340,7.0,15.0,66,0.00,,,0.00,0.000000,,2013-01-22 12:43:00,
2013-01-22 07:53:00,3.0,-6.0,-100.00,NNW,340,7.0,15.0,66,0.00,,,0.00,0.000000,,2013-01-22 12:53:00,
2013-01-22 08:01:00,2.0,-6.0,-100.00,NNE,23,6.0,12.0,67,0.00,,,0.00,11.000000,,2013-01-22 13:01:00,
2013-01-22 08:34:00,2.0,-6.0,-100.00,NNE,23,6.0,12.0,67,0.00,,,0.00,11.000000,,2013-01-22 13:34:00,
2013-01-22 08:43:00,2.0,-6.0,-100.00,NNE,23,6.0,12.0,67,0.00,,,0.00,11.000000,,2013-01-22 13:43:00,
2013-01-22 08:54:00,2.0,-6.0,-100.00,NNE,23,6.0,12.0,67,0.00,,,0.00,11.000000,,2013-01-22 13:54:00,
2013-01-22 09:01:00,4.0,-4.0,-100.00,NNE,28,5.0,14.0,67,0.00,,,0.00,116.000000,,2013-01-22 14:01:00,
2013-01-22 09:34:00,4.0,-4.0,-100.00,NNE,28,5.0,14.0,67,0.00,,,0.00,116.000000,,2013-01-22 14:34:00,
2013-01-22 09:44:00,4.0,-4.0,-100.00,NNE,28,5.0,14.0,67,0.00,,,0.00,116.000000,,2013-01-22 14:44:00,
2013-01-22 09:54:00,4.0,-4.0,-100.00,NNE,28,5.0,14.0,67,0.00,,,0.00,116.000000,,2013-01-22 14:54:00,
2013-01-22 10:01:00,6.0,-6.0,-100.00,NNE,17,6.0,18.0,56,0.00,,,0.00,337.000000,,2013-01-22 15:01:00,
2013-01-22 10:34:00,6.0,-6.0,-100.00,NNE,17,6.0,18.0,56,0.00,,,0.00,337.000000,,2013-01-22 15:34:00,
2013-01-22 10:44:00,6.0,-6.0,-100.00,NNE,17,6.0,18.0,56,0.00,,,0.00,337.000000,,2013-01-22 15:44:00,
2013-01-22 10:54:00,6.0,-6.0,-100.00,NNE,17,6.0,18.0,56,0.00,,,0.00,337.000000,,2013-01-22 15:54:00,
2013-01-22 11:01:00,8.0,-8.0,-100.00,North,354,5.0,14.0,48,0.00,,,0.00,511.000000,,2013-01-22 16:01:00,
2013-01-22 11:33:00,8.0,-8.0,-100.00,North,354,5.0,14.0,48,0.00,,,0.00,511.000000,,2013-01-22 16:33:00,
2013-01-22 11:43:00,8.0,-8.0,-100.00,North,354,5.0,14.0,48,0.00,,,0.00,511.000000,,2013-01-22 16:43:00,
2013-01-22 11:54:00,8.0,-8.0,-100.00,North,354,5.0,14.0,48,0.00,,,0.00,511.000000,,2013-01-22 16:54:00,
2013-01-22 12:01:00,9.0,-8.0,-100.00,NE,37,6.0,12.0,45,0.00,,,0.00,686.000000,,2013-01-22 17:01:00,
2013-01-22 12:35:00,9.0,-8.0,-100.00,NE,37,6.0,12.0,45,0.00,,,0.00,686.000000,,2013-01-22 17:35:00,
2013-01-22 12:44:00,9.0,-8.0,-100.00,NE,37,6.0,12.0,45,0.00,,,0.00,686.000000,,2013-01-22 17:44:00,
2013-01-22 12:54:00,9.0,-8.0,-100.00,NE,37,6.0,12.0,45,0.00,,,0.00,686.000000,,2013-01-22 17:54:00,
2013-01-22 13:01:00,11.0,-9.0,-100.00,North,353,8.0,16.0,40,0.00,,,0.00,756.000000,,2013-01-22 18:01:00,
2013-01-22 13:34:00,11.0,-9.0,-100.00,North,353,8.0,16.0,40,0.00,,,0.00,756.000000,,2013-01-22 18:34:00,
2013-01-22 13:44:00,11.0,-9.0,-100.00,North,353,8.0,16.0,40,0.00,,,0.00,756.000000,,2013-01-22 18:44:00,
2013-01-22 13:54:00,11.0,-9.0,-100.00,North,353,8.0,16.0,40,0.00,,,0.00,756.000000,,2013-01-22 18:54:00,
2013-01-22 14:01:00,11.0,-9.0,-100.00,North,1,6.0,16.0,40,0.00,,,0.00,678.000000,,2013-01-22 19:01:00,
2013-01-22 14:34:00,11.0,-9.0,-100.00,North,1,6.0,16.0,40,0.00,,,0.00,678.000000,,2013-01-22 19:34:00,
2013-01-22 14:44:00,11.0,-9.0,-100.00,North,1,6.0,16.0,40,0.00,,,0.00,678.000000,,2013-01-22 19:44:00,
2013-01-22 14:54:00,11.0,-9.0,-100.00,North,1,6.0,16.0,40,0.00,,,0.00,678.000000,,2013-01-22 19:54:00,
2013-01-22 15:01:00,12.0,-9.0,-100.00,NW,312,9.0,19.0,38,0.00,,,0.00,553.000000,,2013-01-22 20:01:00,
2013-01-22 15:34:00,12.0,-9.0,-100.00,NW,312,9.0,19.0,38,0.00,,,0.00,553.000000,,2013-01-22 20:34:00,
2013-01-22 15:43:00,12.0,-9.0,-100.00,NW,312,9.0,19.0,38,0.00,,,0.00,553.000000,,2013-01-22 20:43:00,
2013-01-22 15:54:00,12.0,-9.0,-100.00,NW,312,9.0,19.0,38,0.00,,,0.00,553.000000,,2013-01-22 20:54:00,
2013-01-22 16:01:00,13.0,-8.0,-100.00,NW,305,7.0,17.0,38,0.00,,,0.00,466.000000,,2013-01-22 21:01:00,
2013-01-22 16:34:00,13.0,-8.0,-100.00,NW,305,7.0,17.0,38,0.00,,,0.00,466.000000,,2013-01-22 21:34:00,
2013-01-22 16:43:00,13.0,-8.0,-100.00,NW,305,7.0,17.0,38,0.00,,,0.00,466.000000,,2013-01-22 21:43:00,
2013-01-22 16:53:00,13.0,-8.0,-100.00,NW,305,7.0,17.0,38,0.00,,,0.00,466.000000,,2013-01-22 21:53:00,
2013-01-22 17:01:00,11.0,-8.0,-100.00,North,354,4.0,18.0,41,0.00,,,0.00,247.000000,,2013-01-22 22:01:00,
2013-01-22 17:33:00,11.0,-8.0,-100.00,North,354,4.0,18.0,41,0.00,,,0.00,247.000000,,2013-01-22 22:33:00,
2013-01-22 17:43:00,11.0,-8.0,-100.00,North,354,4.0,18.0,41,0.00,,,0.00,247.000000,,2013-01-22 22:43:00,
2013-01-22 17:53:00,11.0,-8.0,-100.00,North,354,4.0,18.0,41,0.00,,,0.00,247.000000,,2013-01-22 22:53:00,
2013-01-22 18:01:00,8.0,-8.0,-100.00,NW,310,6.0,13.0,47,0.00,,,-99.99,32.000000,,2013-01-22 23:01:00,
2013-01-22 18:24:00,8.0,-8.0,-100.00,NW,310,6.0,13.0,47,0.00,,,-99.99,32.000000,,2013-01-22 23:24:00,
2013-01-22 18:34:00,8.0,-8.0,-100.00,NW,310,6.0,13.0,47,0.00,,,-99.99,32.000000,,2013-01-22 23:34:00,
2013-01-22 18:43:00,8.0,-8.0,-100.00,NW,310,6.0,13.0,47,0.00,,,-99.99,32.000000,,2013-01-22 23:43:00,
2013-01-22 18:53:00,8.0,-8.0,-100.00,NW,310,6.0,13.0,47,0.00,,,-99.99,32.000000,,2013-01-22 23:53:00,
2013-01-22 19:01:00,7.0,-9.0,-100.00,West,271,6.0,12.0,48,0.00,,,0.00,0.000000,,2013-01-23 00:01:00,
2013-01-22 19:23:00,7.0,-9.0,-100.00,West,271,6.0,12.0,48,0.00,,,0.00,0.000000,,2013-01-23 00:23:00,
2013-01-22 19:33:00,7.0,-9.0,-100.00,West,271,6.0,12.0,48,0.00,,,0.00,0.000000,,2013-01-23 00:33:00,
2013-01-22 19:43:00,7.0,-9.0,-100.00,West,271,6.0,12.0,48,0.00,,,0.00,0.000000,,2013-01-23 00:43:00,
2013-01-22 19:53:00,7.0,-9.0,-100.00,West,271,6.0,12.0,48,0.00,,,0.00,0.000000,,2013-01-23 00:53:00,
2013-01-22 20:01:00,6.0,-9.0,-100.00,WNW,283,4.0,11.0,50,0.00,,,0.00,0.000000,,2013-01-23 01:01:00,
2013-01-22 20:33:00,6.0,-9.0,-100.00,WNW,283,4.0,11.0,50,0.00,,,0.00,0.000000,,2013-01-23 01:33:00,
2013-01-22 20:43:00,6.0,-9.0,-100.00,WNW,283,4.0,11.0,50,0.00,,,0.00,0.000000,,2013-01-23 01:43:00,
2013-01-22 20:53:00,6.0,-9.0,-100.00,WNW,283,4.0,11.0,50,0.00,,,0.00,0.000000,,2013-01-23 01:53:00,
2013-01-22 21:01:00,5.0,-8.0,-100.00,NNE,16,3.0,7.0,54,0.00,,,0.00,0.000000,,2013-01-23 02:01:00,
2013-01-22 21:23:00,5.0,-8.0,-100.00,NNE,16,3.0,7.0,54,0.00,,,0.00,0.000000,,2013-01-23 02:23:00,
2013-01-22 21:33:00,5.0,-8.0,-100.00,NNE,16,3.0,7.0,54,0.00,,,0.00,0.000000,,2013-01-23 02:33:00,
2013-01-22 21:43:00,5.0,-8.0,-100.00,NNE,16,3.0,7.0,54,0.00,,,0.00,0.000000,,2013-01-23 02:43:00,
2013-01-22 21:53:00,5.0,-8.0,-100.00,NNE,16,3.0,7.0,54,0.00,,,0.00,0.000000,,2013-01-23 02:53:00,
2013-01-22 22:01:00,5.0,-7.0,-100.00,NNE,20,4.0,8.0,56,0.00,,,0.00,0.000000,,2013-01-23 03:01:00,
2013-01-22 22:33:00,5.0,-7.0,-100.00,NNE,20,4.0,8.0,56,0.00,,,0.00,0.000000,,2013-01-23 03:33:00,
2013-01-22 22:43:00,5.0,-7.0,-100.00,NNE,20,4.0,8.0,56,0.00,,,0.00,0.000000,,2013-01-23 03:43:00,
2013-01-22 22:53:00,5.0,-7.0,-100.00,NNE,20,4.0,8.0,56,0.00,,,0.00,0.000000,,2013-01-23 03:53:00,
2013-01-22 23:01:00,5.0,-7.0,-100.00,NNE,33,5.0,10.0,58,0.00,,,0.00,0.000000,,2013-01-23 04:01:00,
2013-01-22 23:23:00,5.0,-7.0,-100.00,NNE,33,5.0,10.0,58,0.00,,,0.00,0.000000,,2013-01-23 04:23:00,
2013-01-22 23:33:00,5.0,-7.0,-100.00,NNE,33,5.0,10.0,58,0.00,,,0.00,0.000000,,2013-01-23 04:33:00,
2013-01-22 23:43:00,5.0,-7.0,-100.00,NNE,33,5.0,10.0,58,0.00,,,0.00,0.000000,,2013-01-23 04:43:00,
2013-01-22 23:53:00,5.0,-7.0,-100.00,NNE,33,5.0,10.0,58,0.00,,,0.00,0.000000,,2013-01-23 04:53:00,